METAR Data
IDs: Format: Raw Decoded Include TAF

Data at: 2334 UTC 25 Oct 2021

KCWC 252315Z AUTO 12011G15KT 10SM CLR 28/11 A2991 RMK AO2 T02780110
KCWC 252255Z AUTO 13010G17KT 10SM CLR 28/11 A2991 RMK AO2 T02820107
KCWC 252235Z AUTO 13008G18KT 10SM CLR 29/11 A2992 RMK AO2 T02850106
KCWC 252215Z AUTO 15010G17KT 10SM CLR 29/11 A2992 RMK AO2 T02870107
KCWC 252155Z AUTO 15009G16KT 10SM CLR 29/11 A2992 RMK AO2 T02920106
KCWC 252135Z AUTO 15012G18KT 10SM CLR 29/11 A2992 RMK AO2 T02880107
KCWC 252115Z AUTO 13014G22KT 10SM CLR 29/11 A2992 RMK AO2 T02890106
KCWC 252055Z AUTO 12012G17KT 10SM CLR 29/10 A2993 RMK AO2 T02880104
KCWC 252035Z AUTO 15008G18KT 10SM CLR 29/10 A2993 RMK AO2 T02870103
KCWC 252015Z AUTO 15012G19KT 10SM CLR 29/10 A2994 RMK AO2 T02850102
KCWC 251955Z AUTO 12010G16KT 10SM CLR 28/10 A2994 RMK AO2 T02800102
KCWC 251935Z AUTO 12006G15KT 10SM CLR 28/11 A2995 RMK AO2 T02780109
KCWC 251915Z AUTO 12009G15KT 10SM CLR 27/11 A2996 RMK AO2 T02690109
KCWC 251855Z AUTO 11008KT 10SM CLR 27/11 A2997 RMK AO2 T02650108
KCWC 251835Z AUTO 11008KT 10SM CLR 26/11 A2998 RMK AO2 T02600108
KCWC 251815Z AUTO 11009KT 10SM CLR 25/11 A2999 RMK AO2 T02530113
KCWC 251755Z AUTO 11008G15KT 10SM CLR 24/12 A3000 RMK AO2 T02440119 10244 20112
KCWC 251735Z AUTO 08007G19KT 10SM CLR 24/12 A3001 RMK AO2 T02360117
KCWC 251715Z AUTO 11009G19KT 10SM CLR 23/11 A3002 RMK AO2 T02300113
KCWC 251655Z AUTO 11010G19KT 1/4SM HZ VV002 23/12 A3002 RMK AO2 T02280120
KCWC 251635Z AUTO 08007KT 1/2SM HZ VV005 23/12 A3003 RMK AO2 T02290123
KCWC 251615Z AUTO 08008KT 2SM HZ CLR 22/12 A3003 RMK AO2 VIS 3/4V4 T02220120
KCWC 251555Z AUTO 10011G16KT 070V190 10SM CLR 21/12 A3003 RMK AO2 T02110123
KCWC 251535Z AUTO 05003KT 5SM HZ CLR 19/13 A3004 RMK AO2 T01890128
KCWC 251515Z AUTO 35005KT 10SM CLR 18/13 A3004 RMK AO2 T01750125
KCWC 251455Z AUTO 01004KT 10SM CLR 16/12 A3004 RMK AO2 T01610121
KCWC 251435Z AUTO 03008KT 10SM CLR 15/12 A3003 RMK AO2 T01470118
KCWC 251415Z AUTO 03010KT 10SM CLR 14/12 A3003 RMK AO2 T01360115
KCWC 251355Z AUTO 03009KT 10SM CLR 13/11 A3003 RMK AO2 T01270110
KCWC 251335Z AUTO 03009KT 10SM CLR 12/10 A3003 RMK AO2 T01160103
KCWC 251315Z AUTO 03007KT 10SM CLR 12/10 A3002 RMK AO2 T01170103
KCWC 251255Z AUTO 02010KT 10SM CLR 12/11 A3002 RMK AO2 T01190105
KCWC 251235Z AUTO 10SM CLR 12/11 A3001 RMK AO2 T01200105
KCWC 251215Z AUTO 03010KT 10SM CLR 12/10 A3001 RMK AO2 T01190097
KCWC 251155Z AUTO 00000KT 10SM CLR 13/11 A3000 RMK AO2 T01330106 10175 20125
KCWC 251135Z AUTO 22004KT 10SM CLR 13/11 A2999 RMK AO2 T01280106
KCWC 251115Z AUTO 00000KT 10SM CLR 13/10 A2998 RMK AO2 T01260102
KCWC 251055Z AUTO 00000KT 10SM CLR 13/11 A2997 RMK AO2 T01310105
KCWC 251035Z AUTO 00000KT 10SM CLR 13/10 A2996 RMK AO2 T01300102
KCWC 251015Z AUTO 00000KT 10SM CLR 13/10 A2995 RMK AO2 T01310104
KCWC 250955Z AUTO 00000KT 10SM CLR 14/11 A2995 RMK AO2 T01350107
KCWC 250935Z AUTO 00000KT 10SM CLR 13/11 A2995 RMK AO2 T01310106
KCWC 250915Z AUTO 00000KT 10SM CLR 13/11 A2995 RMK AO2 T01310107
KCWC 250855Z AUTO 00000KT 10SM CLR 14/11 A2995 RMK AO2 T01420113
KCWC 250835Z AUTO 00000KT 10SM CLR 14/11 A2995 RMK AO2 T01410114
KCWC 250815Z AUTO 19003KT 10SM CLR 14/11 A2995 RMK AO2 T01380113
KCWC 250755Z AUTO 19004KT 10SM CLR 14/11 A2995 RMK AO2 T01360111
KCWC 250735Z AUTO 16005KT 10SM CLR 14/11 A2995 RMK AO2 T01360110
KCWC 250715Z AUTO 16005KT 10SM CLR 14/11 A2994 RMK AO2 T01420110
KCWC 250655Z AUTO 15007KT 10SM CLR 15/11 A2994 RMK AO2 T01500113
KCWC 250635Z AUTO 13004KT 10SM CLR 16/12 A2993 RMK AO2 T01630116
KCWC 250615Z AUTO 14004KT 10SM CLR 17/11 A2993 RMK AO2 T01710114
KCWC 250555Z AUTO 06003KT 10SM CLR 17/12 A2993 RMK AO2 T01710115 10269 20170 403150170
KCWC 250535Z AUTO 00000KT 10SM CLR 17/11 A2994 RMK AO2 T01710113
KCWC 250515Z AUTO 03006KT 10SM CLR 17/11 A2994 RMK AO2 T01730114
KCWC 250455Z AUTO 10SM CLR 17/11 A2994 RMK AO2 T01740114
KCWC 250435Z AUTO 02005KT 10SM CLR 18/11 A2993 RMK AO2 T01750113
KCWC 250415Z AUTO 03005KT 10SM CLR 18/11 A2993 RMK AO2 T01770113
KCWC 250355Z AUTO 02005KT 10SM CLR 18/11 A2992 RMK AO2 T01830113
KCWC 250335Z AUTO 02008KT 10SM CLR 19/11 A2992 RMK AO2 T01900112
KCWC 250315Z AUTO 02007KT 10SM CLR 20/11 A2991 RMK AO2 T01970112
KCWC 250255Z AUTO 02008KT 10SM CLR 20/11 A2990 RMK AO2 T02000110
KCWC 250235Z AUTO 02008KT 10SM CLR 21/11 A2989 RMK AO2 T02050107
KCWC 250215Z AUTO 01009KT 10SM CLR 20/10 A2988 RMK AO2 T02000104
KCWC 250155Z AUTO 02005KT 10SM CLR 21/10 A2988 RMK AO2 T02070098
KCWC 250135Z AUTO 03004KT 10SM CLR 21/10 A2987 RMK AO2 T02110095
KCWC 250115Z AUTO 03006KT 10SM CLR 22/09 A2986 RMK AO2 T02210092
KCWC 250055Z AUTO 02012KT 10SM CLR 24/09 A2985 RMK AO2 T02370087
KCWC 250035Z AUTO 02012KT 10SM CLR 25/08 A2984 RMK AO2 T02480083
KCWC 250015Z AUTO 03010KT 10SM CLR 25/08 A2984 RMK AO2 T02490081
KCWC 242355Z AUTO 35004KT 10SM CLR 27/08 A2983 RMK AO2 T02700078 10315 20270
KCWC 242335Z AUTO 01008KT 10SM CLR 28/08 A2982 RMK AO2 T02760077
KCWC 242315Z AUTO 34006G14KT 10SM CLR 28/08 A2982 RMK AO2 T02800075
KCWC 242255Z AUTO 34009G15KT 10SM CLR 29/07 A2981 RMK AO2 T02870067
KCWC 242235Z AUTO 33008KT 10SM CLR 29/04 A2981 RMK AO2 T02920043
KCWC 242215Z AUTO 33005G15KT 10SM CLR 30/04 A2980 RMK AO2 T02950041
KCWC 242155Z AUTO 33006KT 10SM CLR 30/04 A2980 RMK AO2 T02950037
KCWC 242135Z AUTO 32007KT 10SM CLR 30/03 A2979 RMK AO2 T02980030
KCWC 242115Z AUTO 34011G16KT 10SM CLR 30/05 A2978 RMK AO2 T02990046
KCWC 242055Z AUTO 34008G17KT 10SM CLR 30/04 A2977 RMK AO2 T03020044
KCWC 242035Z AUTO 34010G16KT 10SM CLR 31/04 A2976 RMK AO2 T03060036
KCWC 242015Z AUTO 33011G15KT 10SM CLR 31/04 A2976 RMK AO2 T03060039
KCWC 241955Z AUTO 33007G18KT 10SM CLR 31/05 A2975 RMK AO2 T03070054
KCWC 241935Z AUTO 30012G20KT 260V350 10SM CLR 31/07 A2975 RMK AO2 T03120068
KCWC 241915Z AUTO 32009G23KT 290V350 10SM CLR 31/08 A2975 RMK AO2 T03080080
KCWC 241855Z AUTO 30011G17KT 270V350 10SM CLR 31/09 A2975 RMK AO2 T03140092
KCWC 241835Z AUTO 29013G18KT 260V330 10SM CLR 31/10 A2975 RMK AO2 T03120101
KCWC 241815Z AUTO 28010G16KT 250V330 10SM CLR 30/12 A2975 RMK AO2 T03040115
KCWC 241755Z AUTO 26008G17KT 200V310 10SM CLR 30/12 A2976 RMK AO2 T03040118 10304 20203
KCWC 241735Z AUTO 26006G17KT 170V050 10SM CLR 30/13 A2977 RMK AO2 T02980128
KCWC 241715Z AUTO 25009G19KT 10SM CLR 29/14 A2976 RMK AO2 T02900144
KCWC 241655Z AUTO 22014G21KT 10SM CLR 28/17 A2977 RMK AO2 T02800169
KCWC 241635Z AUTO 24013G21KT 210V280 10SM CLR 27/18 A2977 RMK AO2 T02720176
KCWC 241615Z AUTO 23015G22KT 10SM CLR 26/18 A2977 RMK AO2 T02640181
KCWC 241555Z AUTO 23013G25KT 10SM CLR 26/18 A2977 RMK AO2 T02550182
KCWC 241535Z AUTO 21015G24KT 10SM CLR 25/19 A2977 RMK AO2 T02500185
KCWC 241515Z AUTO 21015G24KT 10SM CLR 24/19 A2977 RMK AO2 T02420185
KCWC 241455Z AUTO 20010G20KT 10SM CLR 23/19 A2977 RMK AO2 T02340185
KCWC 241435Z AUTO 19010G16KT 10SM CLR 23/19 A2977 RMK AO2 T02250185
KCWC 241415Z AUTO 19011G20KT 10SM CLR 22/19 A2977 RMK AO2 T02200185
KCWC 241355Z AUTO 19012G18KT 10SM CLR 21/18 A2976 RMK AO2 T02120183
KCWC 241335Z AUTO 19009KT 10SM CLR 21/18 A2976 RMK AO2 T02050181
KCWC 241315Z AUTO 18010KT 140V200 10SM CLR 21/18 A2975 RMK AO2 T02050181
KCWC 241255Z AUTO 17009KT 10SM CLR 21/18 A2976 RMK AO2 T02050181
KCWC 241235Z AUTO 18011KT 10SM CLR 20/18 A2975 RMK AO2 T02040180
KCWC 241215Z AUTO 18010KT 10SM SCT120 21/18 A2976 RMK AO2 T02070181
KCWC 241155Z AUTO 17010G16KT 10SM CLR 21/18 A2976 RMK AO2 T02100181 10233 20208
KCWC 241135Z AUTO 17011KT 10SM CLR 21/18 A2975 RMK AO2 T02100181